createdAt,value
2018-07-25T00:01:48.908Z,18.47
2018-07-25T00:04:31.420Z,20.47
2018-07-25T00:07:13.564Z,21.63
2018-07-25T00:09:56.263Z,19.07
2018-07-25T00:12:38.060Z,18.83
2018-07-25T00:15:19.677Z,21.43
2018-07-25T00:18:01.996Z,18.07
2018-07-25T00:20:43.624Z,20.67
2018-07-25T00:23:25.156Z,19.40
2018-07-25T00:26:06.991Z,18.00
2018-07-25T00:28:48.666Z,22.50
2018-07-25T00:31:30.297Z,20.33
2018-07-25T00:34:12.496Z,18.53
2018-07-25T00:36:55.884Z,22.43
2018-07-25T00:39:37.462Z,22.33
2018-07-25T00:42:19.116Z,20.63
2018-07-25T00:45:01.950Z,22.83
2018-07-25T00:47:43.530Z,18.23
2018-07-25T00:50:25.896Z,20.30
2018-07-25T00:53:08.571Z,24.30
2018-07-25T00:55:51.648Z,20.00
2018-07-25T00:58:33.095Z,24.53
2018-07-25T01:01:14.595Z,22.67
2018-07-25T01:03:57.108Z,19.30
2018-07-25T01:06:38.940Z,19.47
2018-07-25T01:09:20.600Z,19.03
2018-07-25T01:12:02.396Z,20.03
2018-07-25T01:14:44.036Z,24.17
2018-07-25T01:17:26.359Z,19.20
2018-07-25T01:20:08.778Z,20.43
2018-07-25T01:22:50.204Z,21.27
2018-07-25T01:25:32.276Z,19.90
2018-07-25T01:28:13.721Z,17.87
2018-07-25T01:30:56.654Z,21.93
2018-07-25T01:33:38.238Z,23.90
2018-07-25T01:36:19.870Z,20.57
2018-07-25T01:39:01.540Z,19.53
2018-07-25T01:41:43.901Z,20.93
2018-07-25T01:44:26.597Z,23.97
2018-07-25T01:47:08.816Z,19.17
2018-07-25T01:49:50.789Z,20.30
2018-07-25T01:52:32.567Z,20.10
2018-07-25T01:55:14.132Z,26.60
2018-07-25T01:57:56.500Z,21.07
2018-07-25T02:03:59.887Z,27.30
2018-07-25T02:06:41.244Z,28.00
2018-07-25T02:09:23.593Z,27.90
2018-07-25T02:12:05.440Z,26.77
2018-07-25T02:14:46.892Z,25.17
2018-07-25T02:17:29.201Z,24.43
2018-07-25T02:20:10.740Z,26.30
2018-07-25T02:22:53.677Z,21.90
2018-07-25T02:25:35.260Z,23.97
2018-07-25T02:28:16.691Z,29.70
2018-07-25T02:30:58.166Z,25.33
2018-07-25T02:33:45.044Z,25.53
2018-07-25T02:36:26.511Z,26.20
2018-07-25T02:39:11.945Z,27.90
2018-07-25T02:41:53.564Z,26.27
2018-07-25T02:44:34.850Z,29.83
2018-07-25T02:47:16.391Z,27.30
2018-07-25T02:49:57.847Z,24.23
2018-07-25T02:52:39.397Z,24.47
2018-07-25T02:55:21.443Z,26.13
2018-07-25T02:58:02.825Z,22.27
2018-07-25T03:00:44.559Z,25.77
2018-07-25T03:03:26.144Z,25.80
2018-07-25T03:06:07.461Z,25.17
2018-07-25T03:08:49.879Z,27.53
2018-07-25T03:11:31.291Z,22.20
2018-07-25T03:14:12.933Z,25.33
2018-07-25T03:16:55.095Z,21.07
2018-07-25T03:19:36.902Z,23.77
2018-07-25T03:22:18.341Z,25.60
2018-07-25T03:25:00.213Z,23.03
2018-07-25T03:27:41.676Z,22.70
2018-07-25T03:30:24.538Z,23.50
2018-07-25T03:33:06.132Z,23.53
2018-07-25T03:35:47.821Z,23.77
2018-07-25T03:38:32.737Z,27.03
2018-07-25T03:41:14.069Z,25.63
2018-07-25T03:43:55.551Z,24.53
2018-07-25T03:46:36.883Z,25.37
2018-07-25T03:49:24.204Z,26.83
2018-07-25T03:52:06.202Z,24.20
2018-07-25T03:54:47.627Z,24.23
2018-07-25T03:57:29.733Z,24.13
2018-07-25T04:00:11.193Z,24.20
2018-07-25T04:02:53.968Z,24.57
2018-07-25T04:05:35.439Z,26.40
2018-07-25T04:08:17.305Z,22.80
2018-07-25T04:10:59.654Z,29.50
2018-07-25T04:13:40.958Z,24.30
2018-07-25T04:16:23.613Z,24.90
2018-07-25T04:19:05.576Z,23.83
2018-07-25T04:21:47.079Z,24.10
2018-07-25T04:24:29.524Z,25.47
2018-07-25T04:27:10.956Z,29.10
2018-07-25T04:29:53.623Z,26.83
2018-07-25T04:32:35.292Z,28.20
2018-07-25T04:35:17.685Z,27.47
2018-07-25T04:37:59.591Z,23.80
2018-07-25T04:40:41.104Z,28.30
2018-07-25T04:43:23.736Z,25.03
2018-07-25T04:46:05.511Z,30.27
2018-07-25T04:48:47.044Z,26.30
2018-07-25T04:51:29.887Z,31.37
2018-07-25T04:54:11.403Z,23.87
2018-07-25T04:56:53.884Z,27.50
2018-07-25T04:59:35.500Z,24.97
2018-07-25T05:02:17.269Z,27.00
2018-07-25T05:05:00.308Z,26.63
2018-07-25T05:07:41.952Z,26.80
2018-07-25T05:10:25.483Z,24.90
2018-07-25T05:13:07.101Z,27.03
2018-07-25T05:15:48.537Z,28.07
2018-07-25T05:18:30.003Z,26.50
2018-07-25T05:21:12.939Z,24.90
2018-07-25T05:23:55.616Z,25.67
2018-07-25T05:26:37.147Z,29.93
2018-07-25T05:29:20.253Z,30.90
2018-07-25T05:32:02.359Z,28.37
2018-07-25T05:34:43.843Z,27.90
2018-07-25T05:37:25.073Z,28.80
2018-07-25T05:40:06.649Z,27.00
2018-07-25T05:42:49.891Z,32.90
2018-07-25T05:45:31.384Z,25.73
2018-07-25T05:48:13.948Z,31.10
2018-07-25T05:50:56.172Z,26.17
2018-07-25T05:53:37.685Z,28.23
2018-07-25T05:56:20.140Z,27.60
2018-07-25T05:59:02.534Z,25.83
2018-07-25T06:01:44.106Z,26.50
2018-07-25T06:04:25.700Z,30.13
2018-07-25T06:07:07.728Z,21.40
2018-07-25T06:09:49.770Z,24.37
2018-07-25T06:12:31.252Z,23.17
2018-07-25T06:15:13.151Z,21.80
2018-07-25T06:17:55.965Z,18.53
2018-07-25T06:20:37.370Z,23.50
2018-07-25T06:23:20.009Z,19.20
2018-07-25T06:26:01.637Z,29.30
2018-07-25T06:28:43.712Z,22.67
2018-07-25T06:31:25.798Z,21.83
2018-07-25T06:34:08.699Z,19.63
2018-07-25T06:36:50.773Z,22.57
2018-07-25T06:39:32.557Z,18.80
2018-07-25T06:42:13.968Z,21.07
2018-07-25T06:44:56.732Z,22.80
2018-07-25T06:47:38.311Z,15.50
2018-07-25T06:50:20.850Z,21.60
2018-07-25T06:53:02.650Z,20.93
2018-07-25T06:55:44.280Z,22.37
2018-07-25T06:58:26.901Z,18.07
2018-07-25T07:01:09.332Z,25.70
2018-07-25T07:03:52.748Z,18.63
2018-07-25T07:06:34.427Z,16.63
2018-07-25T07:09:16.652Z,14.63
2018-07-25T07:11:58.278Z,15.70
2018-07-25T07:14:39.765Z,14.67
2018-07-25T07:17:22.875Z,22.13
2018-07-25T07:20:05.098Z,20.10
2018-07-25T07:22:46.964Z,17.30
2018-07-25T07:25:28.636Z,15.67
2018-07-25T07:28:10.363Z,16.37
2018-07-25T07:30:54.640Z,18.97
2018-07-25T07:33:36.255Z,21.10
2018-07-25T07:36:19.842Z,18.17
2018-07-25T07:39:01.535Z,22.77
2018-07-25T07:41:43.169Z,20.97
2018-07-25T07:44:25.717Z,17.17
2018-07-25T07:47:07.500Z,19.07
2018-07-25T07:49:50.768Z,24.13
2018-07-25T07:52:32.578Z,19.60
2018-07-25T07:55:14.204Z,21.20
2018-07-25T07:57:55.802Z,18.00
2018-07-25T08:00:37.511Z,15.50
2018-07-25T08:03:20.162Z,20.63
2018-07-25T08:06:02.485Z,18.10
2018-07-25T08:08:45.926Z,16.67
2018-07-25T08:11:27.622Z,16.90
2018-07-25T08:14:09.160Z,24.47
2018-07-25T08:16:51.494Z,22.93
2018-07-25T08:19:33.697Z,19.90
2018-07-25T08:22:16.014Z,20.97
2018-07-25T08:24:57.675Z,19.70
2018-07-25T08:27:39.361Z,16.87
2018-07-25T08:30:23.321Z,20.87
2018-07-25T08:33:04.936Z,40.67
2018-07-25T08:35:46.670Z,23.63
2018-07-25T08:38:37.879Z,31.50
2018-07-25T08:41:21.187Z,15.93
2018-07-25T08:44:02.806Z,19.67
2018-07-25T08:46:44.643Z,15.90
2018-07-25T08:49:26.628Z,15.50
2018-07-25T08:52:08.358Z,14.20
2018-07-25T08:54:51.429Z,13.63
2018-07-25T08:57:33.009Z,19.37
2018-07-25T09:00:17.559Z,13.80
2018-07-25T09:02:59.827Z,16.43
2018-07-25T09:05:51.090Z,13.50
2018-07-25T09:08:32.834Z,18.03
2018-07-25T09:11:14.525Z,13.77
2018-07-25T09:13:56.896Z,12.57
2018-07-25T09:16:39.495Z,14.87
2018-07-25T09:19:23.990Z,15.30
2018-07-25T09:22:05.565Z,13.80
2018-07-25T09:24:47.278Z,17.73
2018-07-25T09:27:30.595Z,16.93
2018-07-25T09:30:15.919Z,16.40
2018-07-25T09:32:58.050Z,16.70
2018-07-25T09:35:39.716Z,12.87
2018-07-25T09:38:23.631Z,11.73
2018-07-25T09:41:05.518Z,12.40
2018-07-25T09:43:47.066Z,17.77
2018-07-25T09:46:29.761Z,11.27
2018-07-25T09:49:11.439Z,11.70
2018-07-25T09:51:54.527Z,12.13
2018-07-25T09:54:37.142Z,9.73
2018-07-25T09:57:20.062Z,9.23
2018-07-25T10:00:02.429Z,11.57
2018-07-25T10:02:43.961Z,10.13
2018-07-25T10:05:25.616Z,9.80
2018-07-25T10:08:07.644Z,12.53
2018-07-25T10:10:50.206Z,10.87
2018-07-25T10:13:33.262Z,13.37
2018-07-25T10:16:14.971Z,9.27
2018-07-25T10:18:56.493Z,10.20
2018-07-25T10:21:38.676Z,12.63
2018-07-25T10:24:22.865Z,20.40
2018-07-25T10:27:04.411Z,7.93
2018-07-25T10:29:46.777Z,8.37
2018-07-25T10:32:28.678Z,10.13
2018-07-25T10:35:10.582Z,11.87
2018-07-25T10:37:53.646Z,13.63
2018-07-25T10:40:35.349Z,9.50
2018-07-25T10:43:17.251Z,11.97
2018-07-25T10:45:59.840Z,9.47
2018-07-25T10:48:41.362Z,9.77
2018-07-25T10:51:23.774Z,14.63
2018-07-25T10:54:06.074Z,12.57
2018-07-25T10:56:47.649Z,8.30
2018-07-25T10:59:31.701Z,12.47
2018-07-25T11:02:15.045Z,10.20
2018-07-25T11:04:58.457Z,8.57
2018-07-25T11:07:39.871Z,9.43
2018-07-25T11:10:24.250Z,10.70
2018-07-25T11:13:06.409Z,10.33
2018-07-25T11:15:48.035Z,10.17
2018-07-25T11:18:29.902Z,9.93
2018-07-25T11:21:11.916Z,14.27
2018-07-25T11:23:54.206Z,14.43
2018-07-25T11:26:36.275Z,13.07
2018-07-25T11:29:17.920Z,16.43
2018-07-25T11:31:59.828Z,13.47
2018-07-25T11:34:41.379Z,9.27
2018-07-25T11:37:23.723Z,13.33
2018-07-25T11:40:06.394Z,10.23
2018-07-25T11:42:47.898Z,9.60
2018-07-25T11:45:30.521Z,9.10
2018-07-25T11:48:12.020Z,11.50
2018-07-25T11:50:54.418Z,10.73
2018-07-25T11:53:35.880Z,11.47
2018-07-25T11:56:17.438Z,14.07
2018-07-25T11:58:59.879Z,10.50
2018-07-25T12:01:41.416Z,11.53
2018-07-25T12:04:23.588Z,10.93
2018-07-25T12:07:05.075Z,8.53
2018-07-25T12:09:46.559Z,7.67
2018-07-25T12:12:28.034Z,11.50
2018-07-25T12:15:10.681Z,10.20
2018-07-25T12:17:54.331Z,14.53
2018-07-25T12:20:35.953Z,14.67
2018-07-25T12:23:17.565Z,8.60
2018-07-25T12:26:00.763Z,7.73
2018-07-25T12:28:43.096Z,9.13
2018-07-25T12:31:26.034Z,8.70
2018-07-25T12:34:08.012Z,7.57
2018-07-25T12:36:51.297Z,7.33
2018-07-25T12:39:34.490Z,16.53
2018-07-25T12:42:21.286Z,9.53
2018-07-25T12:45:02.883Z,7.83
2018-07-25T12:47:44.773Z,10.43
2018-07-25T12:50:26.675Z,12.00
2018-07-25T12:53:08.995Z,10.80
2018-07-25T12:55:51.335Z,8.37
2018-07-25T12:58:35.868Z,8.90
2018-07-25T13:01:17.571Z,10.23
2018-07-25T13:04:01.197Z,8.70
2018-07-25T13:06:42.992Z,8.70
2018-07-25T13:09:26.520Z,8.63
2018-07-25T13:12:08.079Z,9.60
2018-07-25T13:14:50.884Z,7.90
2018-07-25T13:17:32.552Z,8.40
2018-07-25T13:20:14.254Z,20.63
2018-07-25T13:22:55.831Z,7.60
2018-07-25T13:25:41.266Z,7.77
2018-07-25T13:28:24.269Z,11.80
2018-07-25T13:31:06.388Z,9.50
2018-07-25T13:33:48.034Z,10.83
2018-07-25T13:36:31.471Z,8.27
2018-07-25T13:39:13.128Z,8.33
2018-07-25T13:41:55.508Z,6.70
2018-07-25T13:44:37.626Z,7.43
2018-07-25T13:50:11.353Z,8.63
2018-07-25T13:52:53.398Z,9.60
2018-07-25T13:55:36.750Z,10.30
2018-07-25T13:58:18.279Z,7.87
2018-07-25T14:01:00.633Z,14.27
2018-07-25T14:03:42.218Z,9.33
2018-07-25T14:06:25.213Z,11.37
2018-07-25T14:09:10.316Z,9.93
2018-07-25T14:11:55.449Z,12.40
2018-07-25T14:14:37.072Z,9.97
2018-07-25T14:17:18.681Z,6.57
2018-07-25T14:20:01.886Z,7.40
2018-07-25T14:22:43.845Z,7.17
2018-07-25T14:25:25.970Z,9.93
2018-07-25T14:28:07.613Z,8.67
2018-07-25T14:30:51.795Z,7.97
2018-07-25T14:33:33.460Z,5.67
2018-07-25T14:36:15.740Z,8.77
2018-07-25T14:38:57.318Z,5.53
2018-07-25T14:41:39.479Z,11.27
2018-07-25T14:44:22.012Z,7.97
2018-07-25T14:47:03.714Z,10.03
2018-07-25T14:49:45.178Z,6.30
2018-07-25T14:52:27.332Z,6.47
2018-07-25T14:55:08.858Z,8.27
2018-07-25T14:57:51.727Z,6.87
2018-07-25T15:00:33.323Z,10.10
2018-07-25T15:03:15.370Z,12.27
2018-07-25T15:05:57.000Z,9.10
2018-07-25T15:08:38.573Z,12.53
2018-07-25T15:11:21.514Z,14.60
2018-07-25T15:14:04.180Z,7.97
2018-07-25T15:16:45.669Z,10.90
2018-07-25T15:19:27.370Z,10.13
2018-07-25T15:22:08.905Z,12.53
2018-07-25T15:24:51.362Z,7.20
2018-07-25T15:27:33.737Z,7.00
2018-07-25T15:30:15.493Z,8.57
2018-07-25T15:32:57.121Z,7.43
2018-07-25T15:35:38.697Z,10.47
2018-07-25T15:38:21.226Z,8.47
2018-07-25T15:41:02.975Z,9.07
2018-07-25T15:43:45.773Z,10.20
2018-07-25T15:46:28.423Z,7.13
2018-07-25T15:49:09.940Z,9.80
2018-07-25T15:51:53.322Z,8.67
2018-07-25T15:54:35.302Z,11.63
2018-07-25T15:57:17.239Z,12.17
2018-07-25T15:59:58.863Z,8.67
2018-07-25T16:02:40.347Z,7.43
2018-07-25T16:05:23.419Z,7.90
2018-07-25T16:08:07.799Z,10.03
2018-07-25T16:10:50.863Z,9.40
2018-07-25T16:13:33.002Z,7.90
2018-07-25T16:16:14.655Z,10.60
2018-07-25T16:18:56.304Z,12.13
2018-07-25T16:21:38.170Z,12.07
2018-07-25T16:24:20.404Z,11.90
2018-07-25T16:27:02.374Z,10.37
2018-07-25T16:29:45.866Z,15.93
2018-07-25T16:32:28.097Z,8.73
2018-07-25T16:35:09.678Z,8.33
2018-07-25T16:37:52.229Z,7.43
2018-07-25T16:40:33.941Z,11.70
2018-07-25T16:43:16.218Z,11.70
2018-07-25T16:45:57.975Z,7.40
2018-07-25T16:48:39.811Z,7.07
2018-07-25T16:51:22.377Z,15.27
2018-07-25T16:54:04.766Z,8.53
2018-07-25T16:56:46.421Z,9.20
2018-07-25T16:59:29.140Z,10.57
2018-07-25T17:02:10.821Z,9.90
2018-07-25T17:04:55.320Z,11.87
2018-07-25T17:07:37.880Z,9.10
2018-07-25T17:10:19.638Z,9.00
2018-07-25T17:13:01.199Z,10.27
2018-07-25T17:15:42.766Z,9.83
2018-07-25T17:18:25.175Z,9.77
2018-07-25T17:21:07.383Z,14.30
2018-07-25T17:23:49.473Z,7.43
2018-07-25T17:26:32.018Z,12.73
2018-07-25T17:29:14.159Z,8.73
2018-07-25T17:31:57.419Z,12.17
2018-07-25T17:34:39.909Z,6.90
2018-07-25T17:37:25.212Z,11.63
2018-07-25T17:40:07.420Z,10.83
2018-07-25T17:42:49.090Z,11.43
2018-07-25T17:45:41.650Z,10.30
2018-07-25T17:48:25.011Z,7.23
2018-07-25T17:51:06.563Z,9.17
2018-07-25T17:54:44.864Z,9.53
2018-07-25T17:57:33.535Z,8.43
2018-07-25T18:00:16.728Z,10.07
2018-07-25T18:02:59.774Z,10.73
2018-07-25T18:05:42.744Z,8.53
2018-07-25T18:08:25.566Z,12.77
2018-07-25T18:11:08.527Z,12.83
2018-07-25T18:13:58.854Z,20.17
2018-07-25T18:16:44.898Z,10.70
2018-07-25T18:19:31.930Z,10.33
2018-07-25T18:22:13.254Z,9.23
2018-07-25T18:24:56.463Z,11.27
2018-07-25T18:27:38.213Z,12.90
2018-07-25T18:30:29.453Z,12.33
2018-07-25T18:33:17.595Z,10.70
2018-07-25T18:35:59.334Z,18.07
2018-07-25T18:38:42.636Z,13.47
2018-07-25T18:41:25.804Z,11.50
2018-07-25T18:44:25.255Z,10.63
2018-07-25T18:47:07.175Z,14.80
2018-07-25T18:49:49.915Z,13.97
2018-07-25T18:52:31.668Z,12.37
2018-07-25T18:55:13.846Z,10.07
2018-07-25T18:57:56.217Z,14.03
2018-07-25T19:00:38.656Z,14.23
2018-07-25T19:03:21.546Z,9.90
2018-07-25T19:06:04.289Z,15.50
2018-07-25T19:08:46.222Z,10.43
2018-07-25T19:11:27.710Z,13.80
2018-07-25T19:14:14.440Z,11.30
2018-07-25T19:16:56.701Z,18.47
2018-07-25T19:19:38.353Z,13.23
2018-07-25T19:22:21.039Z,9.43
2018-07-25T19:25:02.638Z,10.70
2018-07-25T19:27:51.729Z,9.77
2018-07-25T19:30:33.750Z,12.23
2018-07-25T19:33:15.531Z,16.17
2018-07-25T19:35:58.050Z,15.83
2018-07-25T19:38:42.158Z,12.90
2018-07-25T19:41:26.870Z,12.30
2018-07-25T19:44:09.602Z,12.70
2018-07-25T19:46:52.696Z,11.97
2018-07-25T19:49:35.726Z,13.37
2018-07-25T19:52:18.175Z,14.37
2018-07-25T19:54:59.945Z,13.67
2018-07-25T19:57:42.354Z,17.03
2018-07-25T20:00:25.171Z,16.67
2018-07-25T20:03:07.015Z,18.70
2018-07-25T20:05:48.697Z,16.20
2018-07-25T20:08:31.638Z,18.13
2018-07-25T20:11:14.486Z,18.00
2018-07-25T20:14:01.656Z,16.67
2018-07-25T20:16:44.031Z,17.13
2018-07-25T20:19:26.771Z,14.90
2018-07-25T20:22:08.355Z,14.63
2018-07-25T20:24:50.201Z,14.63
2018-07-25T20:27:31.860Z,14.70
2018-07-25T20:30:13.740Z,15.97
2018-07-25T20:32:57.128Z,19.00
2018-07-25T20:35:38.649Z,19.43
2018-07-25T20:38:20.197Z,23.03
2018-07-25T20:41:06.403Z,21.37
2018-07-25T20:43:48.254Z,19.50
2018-07-25T20:46:29.877Z,21.40
2018-07-25T20:49:12.496Z,24.57
2018-07-25T20:51:55.167Z,20.43
2018-07-25T20:54:36.618Z,22.17
2018-07-25T20:57:18.304Z,17.20
2018-07-25T21:00:01.404Z,16.50
2018-07-25T21:02:45.554Z,17.83
2018-07-25T21:05:29.210Z,14.80
2018-07-25T21:08:13.623Z,20.20
2018-07-25T21:11:01.181Z,25.27
2018-07-25T21:13:45.342Z,16.00
2018-07-25T21:16:28.559Z,20.47
2018-07-25T21:19:13.417Z,18.40
2018-07-25T21:21:58.897Z,18.77
2018-07-25T21:24:42.270Z,18.37
2018-07-25T21:27:26.348Z,20.50
2018-07-25T21:30:08.301Z,17.00
2018-07-25T21:32:49.964Z,16.23
2018-07-25T21:35:32.451Z,16.70
2018-07-25T21:38:14.938Z,18.27
2018-07-25T21:40:57.745Z,21.30
2018-07-25T21:43:39.376Z,19.30
2018-07-25T21:46:20.951Z,18.03
2018-07-25T21:49:02.600Z,17.43
2018-07-25T21:51:45.528Z,22.23
2018-07-25T21:54:31.715Z,19.30
2018-07-25T21:57:13.332Z,16.60
2018-07-25T21:59:56.762Z,17.23
2018-07-25T22:02:39.974Z,15.70
2018-07-25T22:05:22.488Z,13.40
2018-07-25T22:08:06.162Z,13.67
2018-07-25T22:10:49.940Z,15.60
2018-07-25T22:13:33.340Z,13.53
2018-07-25T22:16:17.415Z,16.03
2018-07-25T22:18:59.887Z,16.97
2018-07-25T22:21:41.802Z,12.70
2018-07-25T22:24:24.066Z,13.77
2018-07-25T22:27:07.049Z,15.03
2018-07-25T22:29:49.126Z,12.33
2018-07-25T22:32:35.539Z,15.67
2018-07-25T22:35:18.336Z,12.33
2018-07-25T22:38:02.051Z,14.07
2018-07-25T22:40:43.755Z,13.53
2018-07-25T22:43:28.967Z,17.33
2018-07-25T22:46:10.766Z,14.30
2018-07-25T22:48:52.754Z,15.03
2018-07-25T22:51:37.771Z,12.33
2018-07-25T22:54:19.394Z,14.47
2018-07-25T22:57:01.728Z,16.00
2018-07-25T22:59:43.374Z,15.10
2018-07-25T23:02:28.337Z,12.73
2018-07-25T23:05:09.855Z,10.83
2018-07-25T23:07:51.818Z,11.50
2018-07-25T23:10:34.432Z,10.77
2018-07-25T23:13:16.067Z,12.53
2018-07-25T23:15:57.504Z,9.60
2018-07-25T23:18:39.744Z,12.30
2018-07-25T23:21:21.793Z,11.03
2018-07-25T23:24:04.951Z,11.33
2018-07-25T23:26:46.479Z,11.90
2018-07-25T23:29:27.997Z,14.23
2018-07-25T23:32:09.501Z,11.37
2018-07-25T23:34:50.952Z,12.90
2018-07-25T23:37:35.775Z,12.03
2018-07-25T23:40:19.500Z,11.83
2018-07-25T23:43:00.996Z,9.67
2018-07-25T23:45:43.043Z,10.63
2018-07-25T23:48:25.164Z,9.73
2018-07-25T23:51:08.907Z,14.40
2018-07-25T23:53:51.191Z,14.60
2018-07-25T23:56:33.284Z,18.30
2018-07-25T23:59:16.779Z,13.17
